Time;durP1;ratioP1;P1;durP2;ratioP2;P2;SDS_P1;SDS_P2;PMS_P1;PMS_P2;Temp;Humidity;BMP_temperature;BMP_pressure;BME280_temperature;BME280_humidity;BME280_pressure;Samples;Min_cycle;Max_cycle;Signal;HPM_P1;HPM_P2
2022/04/02 00:01:43;;;;;;;5.33;2.87;;;;;;;;;;1778864;81;21001;-70
2022/04/02 00:04:07;;;;;;;4.67;3.02;;;;;;;;;;1777599;79;21080;-70
2022/04/02 00:06:34;;;;;;;4.92;2.98;;;;;;;;;;1778718;81;21060;-70
2022/04/02 00:09:00;;;;;;;4.28;2.40;;;;;;;;;;1778866;81;21084;-70
2022/04/02 00:11:27;;;;;;;5.17;2.67;;;;;;;;;;1778809;81;21049;-70
2022/04/02 00:13:52;;;;;;;4.20;2.80;;;;;;;;;;1778946;81;20981;-70
2022/04/02 00:16:19;;;;;;;2.75;2.22;;;;;;;;;;1778671;81;21041;-71
2022/04/02 00:18:49;;;;;;;3.42;2.20;;;;;;;;;;1778869;81;21076;-71
2022/04/02 00:21:13;;;;;;;3.72;2.50;;;;;;;;;;1778508;80;21100;-71
2022/04/02 00:23:41;;;;;;;4.00;2.30;;;;;;;;;;1778441;81;21021;-71
2022/04/02 00:26:09;;;;;;;3.72;2.33;;;;;;;;;;1779016;81;21092;-70
2022/04/02 00:28:36;;;;;;;4.45;2.58;;;;;;;;;;1777093;80;21505;-70
2022/04/02 00:31:04;;;;;;;3.90;2.58;;;;;;;;;;1778886;81;21072;-71
2022/04/02 00:33:30;;;;;;;4.62;2.70;;;;;;;;;;1778527;81;21056;-71
2022/04/02 00:35:57;;;;;;;4.35;2.77;;;;;;;;;;1778624;81;21072;-71
2022/04/02 00:38:23;;;;;;;4.35;2.60;;;;;;;;;;1778433;81;21080;-71
2022/04/02 00:40:50;;;;;;;4.53;2.75;;;;;;;;;;1778900;81;21057;-71
2022/04/02 00:43:23;;;;;;;4.70;3.00;;;;;;;;;;1778561;81;21045;-71
2022/04/02 00:45:49;;;;;;;4.90;2.70;;;;;;;;;;1778911;81;20969;-71
2022/04/02 00:48:17;;;;;;;5.00;2.40;;;;;;;;;;1778537;81;21176;-72
2022/04/02 00:50:45;;;;;;;4.20;2.42;;;;;;;;;;1774283;80;21057;-71
2022/04/02 00:53:11;;;;;;;5.78;3.05;;;;;;;;;;1771637;81;21549;-71
2022/04/02 00:55:39;;;;;;;4.45;2.92;;;;;;;;;;1771341;81;21097;-71
2022/04/02 00:58:05;;;;;;;3.72;2.40;;;;;;;;;;1771643;81;21002;-71
2022/04/02 01:03:46;;;;;;;2.90;2.10;;;;;;;;;;1732239;79;21812;-71
2022/04/02 01:06:13;;;;;;;3.92;2.40;;;;;;;;;;1767700;80;21523;-69
2022/04/02 01:08:40;;;;;;;4.33;2.40;;;;;;;;;;1780922;80;21072;-71
2022/04/02 01:11:07;;;;;;;4.78;2.70;;;;;;;;;;1781204;80;21559;-70
2022/04/02 01:13:36;;;;;;;3.22;2.22;;;;;;;;;;1780945;80;21045;-70
2022/04/02 01:16:04;;;;;;;2.62;1.95;;;;;;;;;;1781029;80;21598;-71
2022/04/02 01:18:33;;;;;;;3.87;2.30;;;;;;;;;;1781195;80;21278;-71
2022/04/02 01:21:00;;;;;;;3.37;2.45;;;;;;;;;;1781273;80;21008;-71
2022/04/02 01:23:31;;;;;;;4.45;2.40;;;;;;;;;;1781170;80;21551;-71
2022/04/02 01:26:00;;;;;;;3.25;2.20;;;;;;;;;;1781037;80;21032;-71
2022/04/02 01:28:34;;;;;;;2.98;2.12;;;;;;;;;;1781223;80;21535;-71
2022/04/02 01:31:05;;;;;;;3.02;1.92;;;;;;;;;;1781287;80;21080;-70
2022/04/02 01:33:32;;;;;;;3.50;2.30;;;;;;;;;;1781300;80;21047;-71
2022/04/02 01:36:03;;;;;;;2.92;2.10;;;;;;;;;;1781217;80;21100;-71
2022/04/02 01:38:32;;;;;;;3.25;1.95;;;;;;;;;;1781114;80;21570;-71
2022/04/02 01:40:58;;;;;;;3.72;2.30;;;;;;;;;;1781003;80;21036;-71
2022/04/02 01:43:26;;;;;;;3.33;2.25;;;;;;;;;;1781279;80;21083;-72
2022/04/02 01:45:58;;;;;;;4.00;2.20;;;;;;;;;;1781022;80;21032;-71
2022/04/02 01:48:26;;;;;;;2.98;1.98;;;;;;;;;;1781136;80;21201;-71
2022/04/02 01:50:54;;;;;;;2.70;1.90;;;;;;;;;;1781118;80;21041;-70
2022/04/02 01:53:22;;;;;;;3.02;2.05;;;;;;;;;;1781577;80;21064;-70
2022/04/02 01:55:48;;;;;;;3.25;2.17;;;;;;;;;;1781304;80;21005;-70
2022/04/02 01:58:16;;;;;;;2.55;1.80;;;;;;;;;;1781083;80;21040;-70
2022/04/02 02:00:44;;;;;;;2.30;1.67;;;;;;;;;;1781452;80;21076;-70
2022/04/02 02:03:12;;;;;;;2.02;1.60;;;;;;;;;;1779744;79;21135;-70
2022/04/02 02:05:39;;;;;;;2.67;1.90;;;;;;;;;;1774691;81;21056;-70
2022/04/02 02:08:07;;;;;;;2.10;1.90;;;;;;;;;;1775125;81;21041;-70
2022/04/02 02:10:39;;;;;;;2.35;1.57;;;;;;;;;;1773555;81;21089;-70
2022/04/02 02:13:08;;;;;;;2.17;1.50;;;;;;;;;;1771886;81;21502;-70
2022/04/02 02:15:36;;;;;;;2.25;1.70;;;;;;;;;;1774737;81;21032;-70
2022/04/02 02:18:04;;;;;;;1.90;1.45;;;;;;;;;;1775254;81;21071;-70
2022/04/02 02:20:31;;;;;;;1.90;1.60;;;;;;;;;;1775391;81;21097;-71
2022/04/02 02:22:58;;;;;;;3.25;2.00;;;;;;;;;;1775198;81;21088;-70
2022/04/02 02:25:25;;;;;;;3.58;1.70;;;;;;;;;;1775393;81;21052;-71
2022/04/02 02:27:53;;;;;;;2.37;1.82;;;;;;;;;;1775033;81;21551;-71
2022/04/02 02:30:21;;;;;;;3.08;1.80;;;;;;;;;;1775301;81;21028;-71
2022/04/02 02:32:48;;;;;;;3.60;1.82;;;;;;;;;;1775199;81;21587;-71
2022/04/02 02:38:06;;;;;;;3.12;1.90;;;;;;;;;;1775115;81;21009;-70
2022/04/02 02:40:34;;;;;;;2.52;1.67;;;;;;;;;;1726149;82;21084;-72
2022/04/02 02:43:01;;;;;;;3.87;2.33;;;;;;;;;;1775390;81;21029;-71
2022/04/02 02:45:31;;;;;;;3.40;1.67;;;;;;;;;;1725935;82;21068;-71
2022/04/02 02:48:01;;;;;;;2.65;2.02;;;;;;;;;;1775398;81;21033;-71
2022/04/02 02:50:29;;;;;;;2.80;1.90;;;;;;;;;;1725475;83;21045;-71
2022/04/02 02:52:57;;;;;;;2.10;1.72;;;;;;;;;;1775591;81;21501;-71
2022/04/02 02:55:24;;;;;;;3.42;2.00;;;;;;;;;;1775138;81;21566;-71
2022/04/02 02:57:51;;;;;;;2.60;1.80;;;;;;;;;;1775314;81;21077;-71
2022/04/02 03:00:19;;;;;;;2.45;1.77;;;;;;;;;;1775143;81;21025;-71
2022/04/02 03:02:47;;;;;;;1.70;1.50;;;;;;;;;;1726021;83;21096;-71
2022/04/02 03:05:16;;;;;;;2.35;1.85;;;;;;;;;;1748700;81;21037;-71
2022/04/02 03:07:52;;;;;;;2.75;1.70;;;;;;;;;;1712243;83;21057;-71
2022/04/02 03:10:20;;;;;;;2.77;1.70;;;;;;;;;;1707342;84;21133;-71
2022/04/02 03:12:51;;;;;;;2.00;1.65;;;;;;;;;;1707647;84;21105;-71
2022/04/02 03:15:18;;;;;;;3.33;1.92;;;;;;;;;;1738788;82;21108;-71
2022/04/02 03:17:51;;;;;;;2.10;1.85;;;;;;;;;;1708451;84;21057;-71
2022/04/02 03:20:18;;;;;;;2.20;1.65;;;;;;;;;;1707971;84;21069;-71
2022/04/02 03:22:45;;;;;;;1.90;1.60;;;;;;;;;;1708003;84;21049;-72
2022/04/02 03:25:14;;;;;;;1.70;1.60;;;;;;;;;;1738589;82;21076;-71
2022/04/02 03:27:40;;;;;;;3.17;2.05;;;;;;;;;;1707196;84;21077;-71
2022/04/02 03:30:09;;;;;;;2.72;1.90;;;;;;;;;;1707939;84;21533;-71
2022/04/02 03:32:36;;;;;;;2.58;1.80;;;;;;;;;;1707584;84;21120;-72
2022/04/02 03:35:04;;;;;;;2.65;1.75;;;;;;;;;;1738753;82;21069;-72
2022/04/02 03:37:30;;;;;;;2.27;1.95;;;;;;;;;;1707580;84;21037;-71
2022/04/02 03:39:57;;;;;;;1.90;1.55;;;;;;;;;;1707694;84;21093;-71
2022/04/02 03:42:23;;;;;;;2.62;1.70;;;;;;;;;;1738509;82;21089;-71
2022/04/02 03:44:50;;;;;;;3.80;2.25;;;;;;;;;;1707338;84;21817;-71
2022/04/02 03:47:22;;;;;;;2.33;1.80;;;;;;;;;;1707687;84;21022;-71
2022/04/02 03:49:49;;;;;;;2.70;1.90;;;;;;;;;;1738425;82;21053;-71
2022/04/02 03:52:17;;;;;;;2.95;2.30;;;;;;;;;;1707221;84;21073;-72
2022/04/02 03:54:45;;;;;;;3.02;1.87;;;;;;;;;;1707666;84;21081;-71
2022/04/02 03:57:14;;;;;;;3.00;2.00;;;;;;;;;;1738437;82;21121;-71
2022/04/02 03:59:41;;;;;;;2.15;1.80;;;;;;;;;;1707576;84;21089;-71
2022/04/02 04:02:08;;;;;;;3.30;2.40;;;;;;;;;;1707569;84;21077;-71
2022/04/02 04:04:40;;;;;;;3.22;2.00;;;;;;;;;;1738393;82;21058;-70
2022/04/02 04:07:06;;;;;;;3.83;2.10;;;;;;;;;;1707163;84;21151;-71
2022/04/02 04:09:33;;;;;;;3.00;1.72;;;;;;;;;;1707323;84;21064;-70
2022/04/02 04:12:00;;;;;;;6.72;2.25;;;;;;;;;;1738537;82;21069;-70
2022/04/02 04:14:29;;;;;;;2.42;1.90;;;;;;;;;;1707390;84;21639;-71
2022/04/02 04:16:57;;;;;;;3.98;1.95;;;;;;;;;;1707846;84;21052;-70
2022/04/02 04:19:24;;;;;;;4.33;2.10;;;;;;;;;;1738480;82;21053;-70
2022/04/02 04:21:50;;;;;;;5.15;2.42;;;;;;;;;;1707651;84;20978;-70
2022/04/02 04:24:19;;;;;;;3.77;1.98;;;;;;;;;;1707540;84;21043;-70
2022/04/02 04:26:47;;;;;;;2.62;2.00;;;;;;;;;;1707697;83;21105;-70
2022/04/02 04:29:13;;;;;;;2.90;2.10;;;;;;;;;;1738496;82;21033;-71
2022/04/02 04:31:41;;;;;;;2.60;1.95;;;;;;;;;;1707693;84;21137;-70
2022/04/02 04:34:07;;;;;;;3.42;2.25;;;;;;;;;;1707633;84;21123;-70
2022/04/02 04:36:35;;;;;;;3.35;2.02;;;;;;;;;;1738606;82;21090;-71
2022/04/02 04:39:03;;;;;;;2.83;2.02;;;;;;;;;;1707632;84;21874;-71
2022/04/02 04:41:31;;;;;;;7.20;1.90;;;;;;;;;;1738641;82;21025;-71
2022/04/02 04:43:59;;;;;;;2.50;1.70;;;;;;;;;;1707756;84;21075;-71
2022/04/02 04:46:28;;;;;;;3.90;2.35;;;;;;;;;;1737367;82;21049;-71
2022/04/02 04:48:57;;;;;;;2.60;1.70;;;;;;;;;;1707939;84;21081;-71
2022/04/02 04:51:24;;;;;;;2.72;1.80;;;;;;;;;;1707867;84;21127;-72
2022/04/02 04:53:51;;;;;;;2.92;2.00;;;;;;;;;;1738735;82;21038;-70
2022/04/02 04:56:18;;;;;;;2.80;1.80;;;;;;;;;;1707486;84;21089;-71
2022/04/02 04:58:46;;;;;;;3.37;2.20;;;;;;;;;;1707794;84;21049;-71
2022/04/02 05:01:14;;;;;;;5.80;2.40;;;;;;;;;;1738243;82;21583;-71
2022/04/02 05:03:40;;;;;;;5.40;2.30;;;;;;;;;;1707612;84;21595;-71
2022/04/02 05:06:09;;;;;;;6.33;1.92;;;;;;;;;;1737984;82;21048;-70
2022/04/02 05:08:37;;;;;;;4.17;2.30;;;;;;;;;;1707582;84;21029;-70
2022/04/02 05:11:05;;;;;;;4.22;2.45;;;;;;;;;;1707264;84;21629;-70
2022/04/02 05:13:33;;;;;;;3.65;2.25;;;;;;;;;;1737915;82;21080;-70
2022/04/02 05:16:00;;;;;;;3.33;2.10;;;;;;;;;;1707266;84;21085;-70
2022/04/02 05:18:26;;;;;;;4.22;2.27;;;;;;;;;;1707775;84;20978;-71
2022/04/02 05:20:54;;;;;;;3.58;2.12;;;;;;;;;;1738231;82;21500;-69
2022/04/02 05:23:21;;;;;;;4.90;2.40;;;;;;;;;;1707592;84;21532;-70
2022/04/02 05:25:49;;;;;;;4.83;2.30;;;;;;;;;;1738082;82;21049;-70
2022/04/02 05:28:16;;;;;;;5.67;2.30;;;;;;;;;;1707408;84;21098;-70
2022/04/02 05:30:43;;;;;;;6.00;2.02;;;;;;;;;;1707359;84;21611;-70
2022/04/02 05:33:10;;;;;;;4.05;2.10;;;;;;;;;;1738758;82;21112;-71
2022/04/02 05:35:36;;;;;;;5.67;2.30;;;;;;;;;;1707423;84;21097;-71
2022/04/02 05:38:03;;;;;;;8.20;2.52;;;;;;;;;;1707637;84;21048;-70
2022/04/02 05:40:30;;;;;;;4.78;2.15;;;;;;;;;;1738408;82;21029;-70
2022/04/02 05:42:57;;;;;;;4.67;2.12;;;;;;;;;;1707363;84;21022;-71
2022/04/02 05:45:24;;;;;;;5.90;2.37;;;;;;;;;;1707563;84;21093;-71
2022/04/02 05:47:52;;;;;;;6.53;2.70;;;;;;;;;;1738472;82;21005;-71
2022/04/02 05:50:19;;;;;;;4.95;2.70;;;;;;;;;;1707893;84;21133;-71
2022/04/02 05:52:45;;;;;;;5.15;2.87;;;;;;;;;;1708007;84;21116;-71
2022/04/02 05:55:11;;;;;;;4.53;2.42;;;;;;;;;;1738702;82;21116;-71
2022/04/02 05:57:39;;;;;;;3.67;2.00;;;;;;;;;;1707518;84;21612;-71
2022/04/02 06:00:06;;;;;;;7.12;2.60;;;;;;;;;;1707620;84;21049;-71
2022/04/02 06:02:36;;;;;;;7.37;2.80;;;;;;;;;;1706549;84;21050;-71
2022/04/02 06:06:27;;;;;;;4.42;2.65;;;;;;;;;;1802038;79;23488;-72
2022/04/02 06:08:55;;;;;;;6.65;3.27;;;;;;;;;;1761717;81;20977;-70
2022/04/02 06:11:21;;;;;;;6.40;3.35;;;;;;;;;;1761756;81;21607;-71
2022/04/02 06:13:48;;;;;;;7.45;3.50;;;;;;;;;;1762022;81;21001;-70
2022/04/02 06:16:14;;;;;;;4.83;2.95;;;;;;;;;;1762075;81;21567;-71
2022/04/02 06:18:41;;;;;;;7.60;2.47;;;;;;;;;;1761643;81;21579;-71
2022/04/02 06:21:07;;;;;;;4.58;2.67;;;;;;;;;;1761843;81;21088;-70
2022/04/02 06:23:34;;;;;;;4.35;2.15;;;;;;;;;;1761746;81;21631;-70
2022/04/02 06:26:02;;;;;;;3.70;2.30;;;;;;;;;;1761831;81;21139;-70
2022/04/02 06:28:28;;;;;;;6.60;3.33;;;;;;;;;;1761753;81;21050;-70
2022/04/02 06:30:56;;;;;;;6.45;2.77;;;;;;;;;;1761805;81;21032;-70
2022/04/02 06:33:22;;;;;;;6.47;2.37;;;;;;;;;;1761819;81;21001;-71
2022/04/02 06:35:48;;;;;;;5.30;2.67;;;;;;;;;;1761965;81;21084;-70
2022/04/02 06:38:16;;;;;;;5.25;2.70;;;;;;;;;;1761639;81;21044;-70
2022/04/02 06:40:44;;;;;;;5.35;2.90;;;;;;;;;;1761660;81;21060;-71
2022/04/02 06:43:10;;;;;;;5.22;2.60;;;;;;;;;;1761840;81;21072;-72
2022/04/02 06:45:53;;;;;;;4.53;2.60;;;;;;;;;;1761227;81;21587;-71
2022/04/02 06:48:20;;;;;;;5.30;2.22;;;;;;;;;;1761934;81;21103;-72
2022/04/02 06:50:47;;;;;;;5.80;2.52;;;;;;;;;;1761599;81;21013;-71
2022/04/02 06:53:13;;;;;;;11.05;3.12;;;;;;;;;;1761743;81;21115;-71
2022/04/02 06:55:40;;;;;;;7.37;2.90;;;;;;;;;;1761589;81;21060;-70
2022/04/02 06:58:06;;;;;;;7.12;3.25;;;;;;;;;;1761884;81;21122;-71
2022/04/02 07:00:35;;;;;;;6.83;2.80;;;;;;;;;;1761501;81;21093;-71
2022/04/02 07:03:01;;;;;;;5.75;3.20;;;;;;;;;;1757997;81;22119;-70
2022/04/02 07:05:27;;;;;;;6.37;3.00;;;;;;;;;;1729909;83;21077;-70
2022/04/02 07:07:53;;;;;;;4.58;2.33;;;;;;;;;;1730388;83;21084;-70
2022/04/02 07:10:20;;;;;;;5.47;2.65;;;;;;;;;;1730192;83;21650;-71
2022/04/02 07:12:46;;;;;;;4.00;2.45;;;;;;;;;;1730407;83;21052;-70
2022/04/02 07:15:13;;;;;;;5.05;2.50;;;;;;;;;;1730045;83;20997;-71
2022/04/02 07:17:40;;;;;;;6.80;3.00;;;;;;;;;;1729846;82;21123;-70
2022/04/02 07:20:07;;;;;;;5.45;2.70;;;;;;;;;;1729943;83;21044;-70
2022/04/02 07:22:36;;;;;;;4.08;2.62;;;;;;;;;;1729922;82;21572;-71
2022/04/02 07:25:04;;;;;;;5.20;2.58;;;;;;;;;;1729696;83;21080;-70
2022/04/02 07:27:31;;;;;;;7.50;2.85;;;;;;;;;;1730052;82;21048;-70
2022/04/02 07:29:59;;;;;;;4.75;2.27;;;;;;;;;;1729843;82;21146;-70
2022/04/02 07:32:26;;;;;;;5.42;2.70;;;;;;;;;;1729852;83;21540;-70
2022/04/02 07:34:52;;;;;;;4.60;2.62;;;;;;;;;;1730013;82;21513;-71
2022/04/02 07:37:37;;;;;;;5.75;2.60;;;;;;;;;;1729938;82;21080;-70
2022/04/02 07:40:20;;;;;;;5.87;2.67;;;;;;;;;;1730098;82;21108;-70
2022/04/02 07:42:53;;;;;;;4.72;2.20;;;;;;;;;;1729745;82;21576;-70
2022/04/02 07:45:20;;;;;;;5.45;2.55;;;;;;;;;;1730097;82;21564;-71
2022/04/02 07:47:52;;;;;;;3.45;2.27;;;;;;;;;;1729781;83;21053;-70
2022/04/02 07:50:19;;;;;;;3.17;1.90;;;;;;;;;;1729855;82;21033;-71
2022/04/02 07:52:46;;;;;;;5.50;3.27;;;;;;;;;;1729965;82;21072;-71
2022/04/02 07:55:12;;;;;;;4.17;2.70;;;;;;;;;;1729830;82;21037;-70
2022/04/02 07:57:43;;;;;;;5.50;2.75;;;;;;;;;;1729708;82;21038;-69
2022/04/02 08:00:11;;;;;;;7.08;2.98;;;;;;;;;;1729901;83;21127;-70
2022/04/02 08:02:43;;;;;;;5.05;2.62;;;;;;;;;;1729802;83;21505;-70
2022/04/02 08:05:12;;;;;;;7.30;3.05;;;;;;;;;;1726279;82;21199;-71
2022/04/02 08:07:39;;;;;;;6.95;3.37;;;;;;;;;;1727777;83;20989;-71
2022/04/02 08:10:07;;;;;;;9.10;3.58;;;;;;;;;;1729661;82;21120;-71
2022/04/02 08:12:35;;;;;;;6.05;2.95;;;;;;;;;;1729650;82;21010;-72
2022/04/02 08:15:04;;;;;;;6.28;2.90;;;;;;;;;;1729745;82;21057;-71
2022/04/02 08:17:31;;;;;;;4.45;2.60;;;;;;;;;;1729104;82;21111;-71
2022/04/02 08:20:00;;;;;;;5.08;2.80;;;;;;;;;;1729667;82;21068;-70
2022/04/02 08:22:27;;;;;;;7.00;3.10;;;;;;;;;;1729596;82;21068;-70
2022/04/02 08:24:54;;;;;;;6.30;3.10;;;;;;;;;;1730359;83;21001;-71
2022/04/02 08:27:22;;;;;;;6.00;3.37;;;;;;;;;;1730002;83;21104;-71
2022/04/02 08:29:51;;;;;;;12.18;4.10;;;;;;;;;;1728878;82;21025;-70
2022/04/02 08:32:19;;;;;;;7.85;3.65;;;;;;;;;;1729621;82;21033;-71
2022/04/02 08:35:00;;;;;;;5.15;3.10;;;;;;;;;;1729498;82;21071;-71
2022/04/02 08:37:45;;;;;;;10.20;4.05;;;;;;;;;;1729679;83;21056;-71
2022/04/02 08:40:24;;;;;;;11.88;4.70;;;;;;;;;;1729755;82;21088;-70
2022/04/02 08:42:56;;;;;;;14.13;5.25;;;;;;;;;;1729599;83;21049;-70
2022/04/02 08:45:29;;;;;;;14.23;5.35;;;;;;;;;;1729955;83;21548;-70
2022/04/02 08:48:15;;;;;;;16.95;5.65;;;;;;;;;;1729622;82;21069;-70
2022/04/02 08:50:47;;;;;;;15.45;4.95;;;;;;;;;;1729820;83;21041;-69
2022/04/02 08:53:17;;;;;;;13.50;4.85;;;;;;;;;;1730133;82;21005;-70
2022/04/02 08:55:48;;;;;;;13.90;5.17;;;;;;;;;;1729898;83;21021;-70
2022/04/02 08:58:16;;;;;;;12.43;4.40;;;;;;;;;;1729725;82;21119;-70
2022/04/02 09:00:43;;;;;;;11.93;5.08;;;;;;;;;;1729822;82;21037;-70
2022/04/02 09:03:11;;;;;;;9.10;4.05;;;;;;;;;;1729592;81;21116;-69
2022/04/02 09:05:49;;;;;;;5.37;3.27;;;;;;;;;;1729483;83;21559;-70
2022/04/02 09:08:35;;;;;;;5.42;2.65;;;;;;;;;;1729339;82;21081;-70
2022/04/02 09:11:22;;;;;;;7.72;2.83;;;;;;;;;;1729528;82;21048;-71
2022/04/02 09:13:59;;;;;;;4.55;2.77;;;;;;;;;;1730020;83;21057;-71
2022/04/02 09:16:26;;;;;;;4.42;2.70;;;;;;;;;;1729758;82;21120;-70
2022/04/02 09:19:12;;;;;;;7.15;3.20;;;;;;;;;;1729805;83;21107;-70
2022/04/02 09:21:48;;;;;;;8.70;3.80;;;;;;;;;;1729815;83;21053;-70
2022/04/02 09:24:17;;;;;;;7.12;3.25;;;;;;;;;;1729786;83;21021;-70
2022/04/02 09:26:52;;;;;;;9.08;3.40;;;;;;;;;;1729315;82;21092;-70
2022/04/02 09:29:25;;;;;;;6.33;2.85;;;;;;;;;;1729902;83;21029;-70
2022/04/02 09:32:10;;;;;;;8.35;3.08;;;;;;;;;;1729767;83;21591;-72
2022/04/02 09:34:58;;;;;;;6.65;2.95;;;;;;;;;;1729890;83;21587;-70
2022/04/02 09:37:38;;;;;;;7.37;3.10;;;;;;;;;;1729621;83;21084;-70
2022/04/02 09:40:05;;;;;;;7.00;3.30;;;;;;;;;;1729907;82;21091;-70
2022/04/02 09:42:49;;;;;;;7.12;2.95;;;;;;;;;;1729564;83;21095;-70
2022/04/02 09:45:17;;;;;;;6.00;2.72;;;;;;;;;;1729857;82;21104;-71
2022/04/02 09:48:00;;;;;;;6.47;3.27;;;;;;;;;;1729954;83;20977;-71
2022/04/02 09:50:27;;;;;;;10.93;3.37;;;;;;;;;;1729958;83;21089;-71
2022/04/02 09:52:58;;;;;;;10.60;4.33;;;;;;;;;;1729664;83;21239;-71
2022/04/02 09:55:28;;;;;;;10.88;4.58;;;;;;;;;;1729664;83;21118;-71
2022/04/02 09:58:13;;;;;;;9.88;4.05;;;;;;;;;;1729742;83;21568;-71
2022/04/02 10:00:43;;;;;;;13.45;6.42;;;;;;;;;;1729650;82;21517;-71
2022/04/02 10:03:13;;;;;;;10.85;5.60;;;;;;;;;;1729511;81;21041;-71
2022/04/02 10:05:45;;;;;;;8.83;4.50;;;;;;;;;;1729611;82;21061;-72
2022/04/02 10:08:12;;;;;;;7.30;4.00;;;;;;;;;;1718751;82;21080;-71
2022/04/02 10:10:40;;;;;;;8.05;4.10;;;;;;;;;;1716558;83;21089;-72
2022/04/02 10:13:07;;;;;;;7.58;3.87;;;;;;;;;;1716954;83;21454;-71
2022/04/02 10:15:33;;;;;;;6.40;3.50;;;;;;;;;;1716591;83;21054;-71
2022/04/02 10:18:01;;;;;;;5.15;2.67;;;;;;;;;;1716901;83;21557;-71
2022/04/02 10:20:29;;;;;;;5.65;2.92;;;;;;;;;;1716563;83;21093;-72
2022/04/02 10:22:57;;;;;;;4.33;2.50;;;;;;;;;;1716759;83;21636;-72
2022/04/02 10:25:24;;;;;;;3.98;2.35;;;;;;;;;;1716598;83;21101;-72
2022/04/02 10:27:51;;;;;;;3.85;2.45;;;;;;;;;;1717094;83;21490;-71
2022/04/02 10:30:19;;;;;;;4.35;1.90;;;;;;;;;;1716835;83;21064;-71
2022/04/02 10:32:54;;;;;;;3.65;2.00;;;;;;;;;;1716932;83;21159;-72
2022/04/02 10:35:21;;;;;;;3.37;2.10;;;;;;;;;;1711878;83;21576;-72
2022/04/02 10:38:06;;;;;;;3.55;2.00;;;;;;;;;;1717017;83;21081;-72
2022/04/02 10:40:34;;;;;;;5.08;1.90;;;;;;;;;;1716850;83;21576;-72
2022/04/02 10:43:09;;;;;;;4.55;2.15;;;;;;;;;;1717045;83;21053;-72
2022/04/02 10:45:37;;;;;;;2.58;1.80;;;;;;;;;;1716187;83;21104;-72
2022/04/02 10:48:10;;;;;;;3.45;2.00;;;;;;;;;;1717131;83;21521;-73
2022/04/02 10:50:37;;;;;;;3.60;2.00;;;;;;;;;;1717125;83;21513;-72
2022/04/02 10:53:04;;;;;;;4.62;2.17;;;;;;;;;;1716921;83;21635;-73
2022/04/02 10:55:31;;;;;;;4.60;2.45;;;;;;;;;;1716789;83;21046;-72
2022/04/02 10:58:01;;;;;;;2.60;1.80;;;;;;;;;;1716989;83;21053;-72
2022/04/02 11:00:28;;;;;;;3.15;1.95;;;;;;;;;;1716785;83;21112;-72
2022/04/02 11:03:05;;;;;;;3.15;1.90;;;;;;;;;;1716851;82;21089;-71
2022/04/02 11:05:35;;;;;;;2.15;1.70;;;;;;;;;;1716826;83;21049;-72
2022/04/02 11:08:05;;;;;;;2.50;1.52;;;;;;;;;;1725465;83;21037;-71
2022/04/02 11:10:34;;;;;;;2.92;1.87;;;;;;;;;;1729786;82;21009;-73
2022/04/02 11:13:01;;;;;;;1.87;1.60;;;;;;;;;;1729576;83;21059;-72
2022/04/02 11:15:27;;;;;;;3.22;1.52;;;;;;;;;;1729771;82;21088;-73
2022/04/02 11:17:56;;;;;;;2.55;1.62;;;;;;;;;;1729961;82;20997;-72
2022/04/02 11:20:24;;;;;;;2.62;1.80;;;;;;;;;;1729706;83;21146;-73
2022/04/02 11:22:57;;;;;;;2.47;1.80;;;;;;;;;;1729541;82;21064;-72
2022/04/02 11:25:25;;;;;;;3.87;2.00;;;;;;;;;;1729791;82;21540;-73
2022/04/02 11:27:56;;;;;;;2.02;1.60;;;;;;;;;;1729867;82;21084;-73
2022/04/02 11:30:24;;;;;;;1.95;1.60;;;;;;;;;;1729671;82;21041;-73
2022/04/02 11:32:51;;;;;;;3.08;1.80;;;;;;;;;;1729702;82;21128;-73
2022/04/02 11:35:19;;;;;;;2.60;1.85;;;;;;;;;;1729769;82;21054;-71
2022/04/02 11:37:48;;;;;;;3.72;1.92;;;;;;;;;;1729800;82;21591;-72
2022/04/02 11:40:15;;;;;;;2.42;1.67;;;;;;;;;;1711059;83;21104;-71
2022/04/02 11:42:45;;;;;;;2.72;1.87;;;;;;;;;;1729831;83;21079;-71
2022/04/02 11:45:13;;;;;;;1.98;1.60;;;;;;;;;;1729633;83;21059;-73
2022/04/02 11:47:40;;;;;;;2.80;1.70;;;;;;;;;;1729332;82;21060;-72
2022/04/02 11:50:07;;;;;;;3.30;1.70;;;;;;;;;;1713296;83;21080;-72
2022/04/02 11:52:50;;;;;;;2.02;1.70;;;;;;;;;;1729745;83;21033;-72
2022/04/02 11:55:17;;;;;;;1.80;1.65;;;;;;;;;;1730036;83;21056;-72
2022/04/02 11:58:02;;;;;;;3.05;1.90;;;;;;;;;;1729723;82;21093;-72
2022/04/02 12:00:30;;;;;;;3.83;2.52;;;;;;;;;;1729987;83;21061;-72
2022/04/02 12:02:56;;;;;;;3.00;2.00;;;;;;;;;;1729522;81;21088;-72
2022/04/02 12:05:25;;;;;;;2.50;1.90;;;;;;;;;;1729759;82;21041;-72
2022/04/02 12:07:51;;;;;;;3.60;2.22;;;;;;;;;;1728703;82;21469;-72
2022/04/02 12:10:19;;;;;;;4.10;2.15;;;;;;;;;;1730015;83;21080;-73
2022/04/02 12:12:46;;;;;;;4.22;1.98;;;;;;;;;;1729694;83;21017;-72
2022/04/02 12:15:13;;;;;;;4.05;2.42;;;;;;;;;;1729790;83;21080;-72
2022/04/02 12:17:40;;;;;;;2.70;1.92;;;;;;;;;;1729724;83;21083;-72
2022/04/02 12:20:10;;;;;;;3.58;1.95;;;;;;;;;;1729769;82;21033;-72
2022/04/02 12:22:41;;;;;;;3.92;2.50;;;;;;;;;;1729667;82;21119;-73
2022/04/02 12:25:08;;;;;;;3.02;2.00;;;;;;;;;;1713696;83;21041;-73
2022/04/02 12:27:35;;;;;;;3.45;2.08;;;;;;;;;;1729730;82;21548;-73
2022/04/02 12:30:03;;;;;;;2.75;2.05;;;;;;;;;;1729513;83;21605;-73
2022/04/02 12:32:31;;;;;;;4.20;2.37;;;;;;;;;;1729450;83;21045;-72
2022/04/02 12:34:58;;;;;;;2.62;1.92;;;;;;;;;;1729840;82;21092;-72
2022/04/02 12:37:26;;;;;;;4.42;2.20;;;;;;;;;;1729665;83;21473;-73
2022/04/02 12:39:55;;;;;;;3.50;2.33;;;;;;;;;;1729865;82;21009;-72
2022/04/02 12:42:39;;;;;;;2.95;2.12;;;;;;;;;;1729497;83;21014;-72
2022/04/02 12:45:08;;;;;;;2.95;2.00;;;;;;;;;;1729789;82;21010;-72
2022/04/02 12:47:35;;;;;;;2.52;1.90;;;;;;;;;;1729693;83;21021;-71
2022/04/02 12:50:09;;;;;;;3.55;2.35;;;;;;;;;;1729444;83;21063;-72
2022/04/02 12:52:43;;;;;;;2.27;1.85;;;;;;;;;;1729532;83;21548;-72
2022/04/02 12:55:11;;;;;;;2.13;1.77;;;;;;;;;;1729984;82;21037;-72
2022/04/02 12:57:39;;;;;;;3.30;2.00;;;;;;;;;;1729200;82;21233;-73
2022/04/02 13:00:06;;;;;;;2.55;2.00;;;;;;;;;;1729709;83;21120;-73
2022/04/02 13:02:33;;;;;;;2.62;2.00;;;;;;;;;;1729548;83;21096;-72
2022/04/02 13:05:00;;;;;;;2.20;1.80;;;;;;;;;;1729741;81;21135;-72
2022/04/02 13:07:30;;;;;;;3.52;1.80;;;;;;;;;;1729432;82;21093;-72
2022/04/02 13:09:57;;;;;;;2.33;1.60;;;;;;;;;;1729506;83;21519;-72
2022/04/02 13:12:24;;;;;;;2.22;1.98;;;;;;;;;;1729660;82;21105;-72
2022/04/02 13:14:55;;;;;;;2.00;1.65;;;;;;;;;;1729666;83;21107;-72
2022/04/02 13:17:22;;;;;;;1.92;1.70;;;;;;;;;;1727132;82;21088;-72
2022/04/02 13:22:45;;;;;;;2.25;1.70;;;;;;;;;;1729873;83;21068;-72
2022/04/02 13:25:13;;;;;;;1.65;1.52;;;;;;;;;;1729765;82;21060;-72
2022/04/02 13:27:59;;;;;;;2.25;1.67;;;;;;;;;;1729896;83;21963;-72
2022/04/02 13:30:27;;;;;;;2.37;1.70;;;;;;;;;;1729911;83;21017;-73
2022/04/02 13:32:58;;;;;;;1.98;1.65;;;;;;;;;;1729654;82;21061;-72
2022/04/02 13:35:25;;;;;;;3.50;1.70;;;;;;;;;;1730086;83;21095;-72
2022/04/02 13:38:03;;;;;;;2.10;1.90;;;;;;;;;;1729708;83;20989;-72
2022/04/02 13:40:29;;;;;;;2.15;1.72;;;;;;;;;;1729759;82;21053;-72
2022/04/02 13:42:58;;;;;;;3.95;2.12;;;;;;;;;;1729676;82;21140;-72
2022/04/02 13:45:25;;;;;;;2.35;1.90;;;;;;;;;;1729653;83;21056;-73
2022/04/02 13:47:55;;;;;;;2.90;2.02;;;;;;;;;;1729623;82;21009;-72
2022/04/02 13:50:23;;;;;;;2.75;1.80;;;;;;;;;;1729540;83;21590;-72
2022/04/02 13:52:57;;;;;;;2.83;1.98;;;;;;;;;;1729733;83;20977;-72
2022/04/02 13:55:23;;;;;;;3.52;1.90;;;;;;;;;;1729184;82;21100;-72
2022/04/02 13:57:49;;;;;;;2.58;1.80;;;;;;;;;;1729365;82;22238;-72
2022/04/02 14:00:16;;;;;;;1.92;1.52;;;;;;;;;;1729714;82;21043;-72
2022/04/02 14:02:43;;;;;;;1.50;1.40;;;;;;;;;;1729627;81;21036;-71
2022/04/02 14:05:18;;;;;;;1.42;1.32;;;;;;;;;;1729760;82;21032;-72
2022/04/02 14:07:46;;;;;;;1.90;1.62;;;;;;;;;;1726502;82;21097;-72
2022/04/02 14:10:13;;;;;;;2.00;1.75;;;;;;;;;;1715984;83;21120;-72
2022/04/02 14:12:41;;;;;;;1.40;1.30;;;;;;;;;;1716726;83;21038;-72
2022/04/02 14:15:12;;;;;;;1.45;1.35;;;;;;;;;;1716849;83;21516;-72
2022/04/02 14:17:41;;;;;;;2.15;1.50;;;;;;;;;;1716694;83;21010;-71
2022/04/02 14:20:10;;;;;;;2.35;1.70;;;;;;;;;;1716776;83;21133;-72
2022/04/02 14:22:38;;;;;;;1.57;1.47;;;;;;;;;;1716665;83;21052;-72
2022/04/02 14:25:06;;;;;;;1.80;1.47;;;;;;;;;;1716482;83;21120;-71
2022/04/02 14:27:37;;;;;;;2.55;1.62;;;;;;;;;;1716567;83;21089;-72
2022/04/02 14:30:09;;;;;;;2.05;1.60;;;;;;;;;;1716860;83;21081;-71
2022/04/02 14:32:54;;;;;;;2.10;1.80;;;;;;;;;;1716908;83;21557;-72
2022/04/02 14:35:34;;;;;;;2.12;1.65;;;;;;;;;;1717158;83;21073;-72
2022/04/02 14:38:02;;;;;;;2.42;1.70;;;;;;;;;;1716909;83;21065;-72
2022/04/02 14:40:47;;;;;;;1.90;1.60;;;;;;;;;;1717233;83;21046;-72
2022/04/02 14:43:32;;;;;;;2.27;1.62;;;;;;;;;;1716907;83;21073;-72
2022/04/02 14:46:15;;;;;;;3.30;2.00;;;;;;;;;;1717176;83;21072;-72
2022/04/02 14:48:43;;;;;;;2.77;1.77;;;;;;;;;;1687993;85;21147;-72
2022/04/02 14:51:11;;;;;;;3.00;1.90;;;;;;;;;;1707672;83;21100;-72
2022/04/02 14:53:41;;;;;;;2.35;1.90;;;;;;;;;;1716765;83;21029;-72
2022/04/02 14:56:18;;;;;;;3.05;2.00;;;;;;;;;;1716935;83;21071;-72
2022/04/02 14:58:59;;;;;;;2.42;1.82;;;;;;;;;;1716895;83;21015;-73
2022/04/02 15:01:28;;;;;;;2.40;1.80;;;;;;;;;;1697197;83;21049;-73
2022/04/02 15:04:09;;;;;;;2.10;1.80;;;;;;;;;;1716836;82;21085;-73
2022/04/02 15:06:53;;;;;;;1.80;1.67;;;;;;;;;;1716707;83;21084;-73